createdAt,value
2022-08-03T00:01:26.189Z,19.55
2022-08-03T00:03:52.612Z,19.57
2022-08-03T00:06:19.254Z,19.58
2022-08-03T00:08:45.817Z,19.61
2022-08-03T00:11:12.430Z,19.61
2022-08-03T00:13:38.985Z,19.61
2022-08-03T00:16:05.552Z,19.64
2022-08-03T00:18:32.051Z,19.64
2022-08-03T00:20:58.513Z,19.61
2022-08-03T00:23:24.980Z,19.59
2022-08-03T00:25:51.540Z,19.58
2022-08-03T00:28:17.971Z,19.53
2022-08-03T00:30:44.901Z,19.51
2022-08-03T00:33:11.344Z,19.46
2022-08-03T00:35:50.400Z,19.46
2022-08-03T00:38:17.853Z,19.39
2022-08-03T00:40:44.235Z,19.42
2022-08-03T00:43:10.641Z,19.40
2022-08-03T00:45:39.276Z,19.47
2022-08-03T00:48:29.661Z,19.43
2022-08-03T00:50:54.679Z,19.38
2022-08-03T00:53:21.544Z,19.38
2022-08-03T00:55:48.066Z,19.38
2022-08-03T00:58:14.580Z,19.44
2022-08-03T01:00:41.602Z,19.43
2022-08-03T01:03:09.414Z,19.34
2022-08-03T01:05:49.736Z,19.38
2022-08-03T01:08:28.303Z,19.36
2022-08-03T01:11:10.809Z,19.28
2022-08-03T01:14:03.944Z,19.30
2022-08-03T01:16:44.714Z,19.30
2022-08-03T01:19:49.936Z,19.30
2022-08-03T01:22:50.414Z,19.33
2022-08-03T01:25:28.785Z,19.36
2022-08-03T01:28:15.104Z,19.34
2022-08-03T01:30:45.555Z,19.32
2022-08-03T01:33:12.006Z,19.31
2022-08-03T01:35:54.526Z,19.35
2022-08-03T01:38:43.474Z,19.36
2022-08-03T01:41:18.696Z,19.34
2022-08-03T01:43:47.594Z,19.34
2022-08-03T01:46:36.267Z,19.36
2022-08-03T01:49:09.176Z,19.37
2022-08-03T01:51:57.817Z,19.34
2022-08-03T01:54:25.843Z,19.35
2022-08-03T01:56:54.748Z,19.34
2022-08-03T01:59:22.950Z,19.30
2022-08-03T02:02:28.416Z,19.25
2022-08-03T02:04:38.978Z,19.25
2022-08-03T02:07:07.419Z,19.27
2022-08-03T02:09:36.986Z,19.24
2022-08-03T02:12:04.581Z,19.29
2022-08-03T02:14:31.753Z,19.19
2022-08-03T02:16:59.181Z,19.14
2022-08-03T02:19:30.318Z,19.06
2022-08-03T02:22:01.318Z,19.12
2022-08-03T02:24:29.254Z,19.02
2022-08-03T02:26:56.929Z,19.02
2022-08-03T02:29:38.644Z,18.97
2022-08-03T02:32:12.213Z,18.96
2022-08-03T02:34:40.695Z,18.98
2022-08-03T02:37:08.658Z,18.95
2022-08-03T02:39:36.645Z,18.98
2022-08-03T02:42:04.063Z,18.93
2022-08-03T02:44:33.511Z,18.94
2022-08-03T02:47:07.483Z,18.98
2022-08-03T02:49:50.777Z,18.88
2022-08-03T02:52:21.386Z,18.90
2022-08-03T02:54:50.895Z,18.94
2022-08-03T02:57:18.631Z,18.89
2022-08-03T02:59:46.330Z,18.85
2022-08-03T03:02:15.223Z,18.81
2022-08-03T03:04:59.711Z,18.82
2022-08-03T03:07:38.434Z,18.76
2022-08-03T03:10:18.928Z,18.80
2022-08-03T03:12:46.765Z,18.76
2022-08-03T03:15:13.276Z,18.73
2022-08-03T03:17:40.890Z,18.64
2022-08-03T03:20:08.261Z,18.63
2022-08-03T03:22:36.057Z,18.63
2022-08-03T03:25:03.029Z,18.56
2022-08-03T03:27:30.168Z,18.60
2022-08-03T03:29:57.866Z,18.59
2022-08-03T03:32:26.229Z,18.65
2022-08-03T03:34:54.150Z,18.58
2022-08-03T03:37:20.682Z,18.53
2022-08-03T03:39:49.323Z,18.54
2022-08-03T03:42:16.031Z,18.60
2022-08-03T03:44:42.821Z,18.60
2022-08-03T03:47:09.305Z,18.58
2022-08-03T03:49:37.183Z,18.53
2022-08-03T03:52:03.814Z,18.48
2022-08-03T03:54:43.288Z,18.47
2022-08-03T03:57:13.664Z,18.45
2022-08-03T03:59:41.601Z,18.49
2022-08-03T04:02:08.932Z,18.49
2022-08-03T04:04:36.356Z,18.44
2022-08-03T04:07:03.110Z,18.46
2022-08-03T04:09:31.131Z,18.51
2022-08-03T04:12:01.786Z,18.60
2022-08-03T04:14:36.567Z,18.60
2022-08-03T04:17:07.262Z,18.61
2022-08-03T04:19:47.834Z,18.60
2022-08-03T04:22:18.898Z,18.68
2022-08-03T04:24:58.194Z,18.76
2022-08-03T04:27:28.705Z,18.76
2022-08-03T04:29:57.499Z,18.77
2022-08-03T04:32:26.993Z,18.78
2022-08-03T04:34:53.731Z,18.80
2022-08-03T04:37:41.588Z,18.81
2022-08-03T04:40:14.090Z,18.92
2022-08-03T04:42:43.274Z,18.99
2022-08-03T04:45:12.941Z,19.06
2022-08-03T04:47:40.140Z,19.14
2022-08-03T04:50:12.205Z,19.26
2022-08-03T04:52:39.842Z,19.38
2022-08-03T04:55:06.886Z,19.53
2022-08-03T04:57:33.313Z,19.56
2022-08-03T05:00:03.004Z,19.69
2022-08-03T05:02:30.635Z,19.78
2022-08-03T05:04:57.135Z,19.91
2022-08-03T05:07:25.111Z,19.91
2022-08-03T05:10:01.580Z,19.93
2022-08-03T05:12:32.852Z,19.94
2022-08-03T05:15:00.042Z,20.02
2022-08-03T05:17:26.512Z,20.05
2022-08-03T05:19:53.072Z,20.19
2022-08-03T05:22:19.834Z,20.26
2022-08-03T05:24:46.270Z,20.33
2022-08-03T05:27:12.853Z,20.49
2022-08-03T05:29:39.258Z,20.51
2022-08-03T05:32:16.476Z,21.09
2022-08-03T05:34:43.949Z,22.50
2022-08-03T05:37:10.977Z,23.70
2022-08-03T05:39:37.460Z,25.28
2022-08-03T05:42:04.140Z,26.42
2022-08-03T05:44:30.619Z,27.63
2022-08-03T05:46:57.645Z,27.94
2022-08-03T05:49:24.176Z,28.76
2022-08-03T05:52:00.458Z,29.26
2022-08-03T05:54:56.877Z,29.27
2022-08-03T05:57:23.581Z,29.16
2022-08-03T05:59:55.707Z,29.44
2022-08-03T06:02:26.369Z,29.06
2022-08-03T06:04:52.862Z,29.24
2022-08-03T06:07:19.391Z,30.73
2022-08-03T06:10:34.083Z,30.93
2022-08-03T06:12:32.378Z,31.56
2022-08-03T06:14:58.788Z,31.67
2022-08-03T06:17:25.207Z,30.62
2022-08-03T06:19:54.637Z,29.91
2022-08-03T06:22:21.424Z,29.65
2022-08-03T06:24:53.499Z,29.03
2022-08-03T06:27:21.072Z,29.68
2022-08-03T06:30:04.129Z,28.93
2022-08-03T06:32:30.729Z,28.21
2022-08-03T06:34:57.181Z,27.25
2022-08-03T06:37:23.703Z,26.97
2022-08-03T06:39:50.153Z,27.80
2022-08-03T06:42:16.775Z,29.33
2022-08-03T06:44:43.374Z,31.42
2022-08-03T06:47:09.868Z,32.02
2022-08-03T06:49:36.338Z,33.20
2022-08-03T06:52:06.775Z,34.04
2022-08-03T06:54:33.724Z,33.80
2022-08-03T06:57:00.295Z,33.97
2022-08-03T07:00:09.140Z,35.10
2022-08-03T07:02:18.981Z,35.67
2022-08-03T07:04:47.407Z,35.42
2022-08-03T07:07:13.903Z,35.80
2022-08-03T07:09:40.347Z,36.14
2022-08-03T07:12:08.433Z,35.93
2022-08-03T07:14:34.843Z,36.44
2022-08-03T07:17:01.302Z,36.90
2022-08-03T07:19:31.192Z,37.17
2022-08-03T07:21:58.349Z,36.74
2022-08-03T07:24:28.887Z,37.16
2022-08-03T07:26:55.445Z,37.77
2022-08-03T07:29:21.934Z,36.39
2022-08-03T07:31:48.488Z,34.06
2022-08-03T07:34:15.210Z,34.45
2022-08-03T07:36:41.678Z,33.42
2022-08-03T07:39:16.650Z,32.89
2022-08-03T07:41:45.685Z,32.04
2022-08-03T07:44:12.458Z,31.63
2022-08-03T07:46:39.143Z,31.34
2022-08-03T07:49:05.696Z,31.70
2022-08-03T07:51:32.188Z,31.32
2022-08-03T07:53:58.605Z,30.87
2022-08-03T07:56:25.106Z,31.09
2022-08-03T07:58:52.232Z,31.28
2022-08-03T08:01:19.752Z,31.80
2022-08-03T08:03:53.205Z,34.19
2022-08-03T08:06:20.732Z,35.04
2022-08-03T08:08:47.292Z,34.51
2022-08-03T08:11:13.819Z,35.81
2022-08-03T08:13:40.294Z,35.37
2022-08-03T08:16:06.729Z,36.56
2022-08-03T08:18:33.211Z,38.02
2022-08-03T08:20:59.704Z,38.57
2022-08-03T08:23:42.108Z,38.37
2022-08-03T08:26:09.639Z,38.42
2022-08-03T08:28:36.073Z,37.51
2022-08-03T08:31:02.574Z,37.05
2022-08-03T08:33:47.918Z,37.14
2022-08-03T08:36:15.918Z,34.43
2022-08-03T08:38:43.243Z,33.47
2022-08-03T08:41:11.193Z,33.75
2022-08-03T08:43:37.845Z,33.83
2022-08-03T08:46:05.909Z,33.81
2022-08-03T08:48:32.455Z,33.10
2022-08-03T08:51:01.135Z,34.22
2022-08-03T08:53:29.421Z,35.14
2022-08-03T08:56:00.776Z,35.19
2022-08-03T08:58:36.783Z,36.11
2022-08-03T09:01:03.521Z,34.10
2022-08-03T09:03:31.025Z,34.22
2022-08-03T09:05:59.781Z,33.54
2022-08-03T09:08:26.346Z,34.82
2022-08-03T09:10:52.869Z,35.55
2022-08-03T09:13:19.822Z,35.67
2022-08-03T09:15:59.847Z,35.77
2022-08-03T09:18:32.500Z,35.09
2022-08-03T09:21:33.703Z,36.39
2022-08-03T09:24:05.337Z,36.15
2022-08-03T09:26:35.695Z,37.44
2022-08-03T09:29:16.778Z,36.09
2022-08-03T09:31:45.818Z,37.51
2022-08-03T09:34:17.199Z,37.84
2022-08-03T09:36:49.477Z,38.32
2022-08-03T09:39:40.665Z,37.70
2022-08-03T09:42:11.366Z,38.70
2022-08-03T09:44:44.182Z,37.59
2022-08-03T09:47:11.833Z,35.73
2022-08-03T09:49:41.030Z,35.74
2022-08-03T09:52:33.089Z,34.55
2022-08-03T09:55:23.702Z,35.26
2022-08-03T09:58:05.682Z,34.22
2022-08-03T10:00:32.202Z,35.21
2022-08-03T10:03:04.468Z,36.74
2022-08-03T10:05:34.023Z,37.89
2022-08-03T10:08:00.465Z,37.96
2022-08-03T10:10:31.178Z,35.88
2022-08-03T10:13:00.202Z,34.15
2022-08-03T10:16:22.592Z,34.19
2022-08-03T10:18:13.843Z,33.95
2022-08-03T10:20:45.515Z,35.44
2022-08-03T10:23:13.913Z,35.03
2022-08-03T10:25:41.419Z,36.06
2022-08-03T10:28:12.926Z,37.74
2022-08-03T10:30:43.962Z,36.84
2022-08-03T10:33:50.158Z,35.84
2022-08-03T10:36:06.952Z,36.28
2022-08-03T10:38:38.394Z,35.31
2022-08-03T10:41:06.964Z,34.35
2022-08-03T10:43:37.858Z,32.42
2022-08-03T10:46:06.967Z,31.57
2022-08-03T10:48:35.338Z,31.43
2022-08-03T10:51:02.345Z,30.99
2022-08-03T10:53:37.376Z,30.91
2022-08-03T10:56:05.469Z,31.95
2022-08-03T10:58:38.238Z,31.05
2022-08-03T11:01:58.890Z,29.92
2022-08-03T11:04:27.507Z,30.73
2022-08-03T11:07:22.058Z,31.89
2022-08-03T11:09:51.207Z,32.08
2022-08-03T11:12:31.137Z,33.78
2022-08-03T11:15:01.253Z,34.08
2022-08-03T11:17:27.999Z,32.21
2022-08-03T11:19:57.785Z,30.68
2022-08-03T11:22:25.639Z,30.47
2022-08-03T11:24:52.032Z,30.30
2022-08-03T11:27:23.398Z,29.93
2022-08-03T11:29:55.949Z,30.26
2022-08-03T11:32:37.778Z,31.13
2022-08-03T11:35:11.743Z,30.43
2022-08-03T11:38:04.368Z,30.75
2022-08-03T11:40:40.693Z,30.14
2022-08-03T11:43:31.226Z,31.23
2022-08-03T11:46:04.601Z,33.36
2022-08-03T11:48:34.065Z,32.12
2022-08-03T11:51:01.328Z,31.03
2022-08-03T11:53:28.711Z,29.74
2022-08-03T11:55:59.484Z,29.46
2022-08-03T11:59:17.558Z,29.49
2022-08-03T12:01:12.971Z,29.88
2022-08-03T12:03:39.458Z,29.53
2022-08-03T12:06:11.070Z,29.03
2022-08-03T12:08:37.802Z,28.82
2022-08-03T12:11:05.670Z,29.03
2022-08-03T12:14:44.892Z,28.83
2022-08-03T12:16:26.415Z,29.00
2022-08-03T12:18:57.058Z,28.78
2022-08-03T12:21:23.549Z,28.44
2022-08-03T12:23:51.197Z,28.01
2022-08-03T12:26:17.936Z,28.14
2022-08-03T12:28:49.922Z,28.23
2022-08-03T12:31:16.949Z,28.23
2022-08-03T12:34:01.318Z,28.73
2022-08-03T12:36:28.362Z,28.74
2022-08-03T12:39:00.006Z,28.73
2022-08-03T12:41:34.860Z,28.70
2022-08-03T12:44:06.343Z,28.76
2022-08-03T12:46:37.846Z,28.49
2022-08-03T12:49:05.809Z,28.25
2022-08-03T12:51:43.035Z,28.75
2022-08-03T12:54:24.543Z,29.16
2022-08-03T12:57:02.805Z,28.96
2022-08-03T12:59:35.441Z,28.85
2022-08-03T13:02:18.451Z,28.84
2022-08-03T13:04:46.896Z,29.21
2022-08-03T13:07:14.785Z,29.36
2022-08-03T13:10:06.190Z,29.12
2022-08-03T13:12:48.917Z,28.25
2022-08-03T13:15:16.075Z,28.17
2022-08-03T13:17:42.613Z,28.28
2022-08-03T13:20:09.368Z,28.27
2022-08-03T13:22:35.861Z,28.38
2022-08-03T13:25:03.351Z,28.55
2022-08-03T13:28:03.619Z,29.24
2022-08-03T13:30:17.916Z,28.95
2022-08-03T13:32:56.760Z,29.15
2022-08-03T13:35:25.273Z,29.07
2022-08-03T13:37:51.713Z,28.67
2022-08-03T13:40:18.309Z,28.24
2022-08-03T13:42:44.729Z,28.28
2022-08-03T13:45:11.159Z,28.63
2022-08-03T13:47:37.721Z,28.57
2022-08-03T13:50:04.900Z,28.60
2022-08-03T13:52:33.275Z,29.16
2022-08-03T13:55:00.376Z,29.34
2022-08-03T13:58:11.348Z,29.32
2022-08-03T14:00:16.675Z,29.55
2022-08-03T14:02:59.934Z,29.61
2022-08-03T14:05:30.348Z,29.67
2022-08-03T14:08:04.027Z,29.61
2022-08-03T14:10:36.139Z,29.79
2022-08-03T14:13:03.676Z,30.02
2022-08-03T14:15:30.229Z,29.98
2022-08-03T14:17:58.595Z,30.17
2022-08-03T14:20:37.735Z,30.11
2022-08-03T14:23:06.623Z,30.28
2022-08-03T14:25:43.678Z,30.01
2022-08-03T14:28:23.653Z,30.13
2022-08-03T14:30:51.649Z,29.72
2022-08-03T14:33:18.339Z,29.65
2022-08-03T14:35:44.755Z,29.60
2022-08-03T14:38:11.246Z,29.09
2022-08-03T14:40:37.946Z,28.90
2022-08-03T14:43:04.618Z,28.48
2022-08-03T14:45:31.108Z,29.20
2022-08-03T14:50:31.913Z,29.09
2022-08-03T14:50:50.201Z,29.27
2022-08-03T14:53:16.976Z,29.51
2022-08-03T14:55:50.784Z,29.54
2022-08-03T14:58:22.500Z,29.50
2022-08-03T15:00:51.072Z,29.51
2022-08-03T15:03:19.543Z,28.44
2022-08-03T15:05:45.953Z,28.34
2022-08-03T15:08:12.370Z,28.64
2022-08-03T15:10:40.236Z,28.78
2022-08-03T15:13:11.411Z,29.07
2022-08-03T15:15:37.859Z,29.30
2022-08-03T15:18:04.558Z,29.12
2022-08-03T15:20:43.446Z,28.85
2022-08-03T15:23:11.689Z,28.96
2022-08-03T15:26:31.646Z,28.59
2022-08-03T15:28:25.852Z,28.26
2022-08-03T15:30:52.801Z,28.44
2022-08-03T15:33:19.959Z,28.31
2022-08-03T15:35:46.369Z,28.51
2022-08-03T15:38:13.108Z,28.62
2022-08-03T15:40:39.527Z,29.11
2022-08-03T15:43:06.507Z,28.92
2022-08-03T15:45:36.791Z,28.86
2022-08-03T15:48:05.617Z,28.85
2022-08-03T15:50:32.056Z,28.52
2022-08-03T15:52:58.629Z,28.46
2022-08-03T15:55:25.264Z,28.49
2022-08-03T15:59:01.159Z,28.26
2022-08-03T16:00:38.825Z,28.34
2022-08-03T16:03:05.325Z,28.59
2022-08-03T16:05:32.152Z,28.24
2022-08-03T16:08:04.225Z,28.15
2022-08-03T16:10:32.077Z,28.42
2022-08-03T16:12:59.021Z,28.70
2022-08-03T16:15:25.550Z,28.65
2022-08-03T16:17:51.989Z,28.18
2022-08-03T16:20:31.152Z,27.98
2022-08-03T16:23:07.031Z,27.92
2022-08-03T16:25:39.470Z,28.07
2022-08-03T16:28:12.834Z,28.07
2022-08-03T16:30:41.743Z,27.77
2022-08-03T16:33:08.545Z,28.21
2022-08-03T16:35:35.141Z,28.09
2022-08-03T16:38:04.369Z,28.31
2022-08-03T16:40:33.310Z,27.55
2022-08-03T16:42:59.732Z,27.56
2022-08-03T16:45:26.257Z,27.64
2022-08-03T16:48:01.745Z,27.18
2022-08-03T16:50:32.494Z,27.31
2022-08-03T16:52:58.957Z,27.36
2022-08-03T16:55:52.080Z,26.95
2022-08-03T16:58:12.388Z,26.81
2022-08-03T17:00:41.502Z,27.01
2022-08-03T17:03:18.904Z,27.27
2022-08-03T17:05:48.220Z,27.19
2022-08-03T17:08:26.286Z,27.62
2022-08-03T17:10:54.593Z,27.66
2022-08-03T17:13:21.687Z,27.41
2022-08-03T17:16:00.752Z,27.18
2022-08-03T17:18:33.600Z,26.85
2022-08-03T17:21:03.882Z,27.20
2022-08-03T17:23:47.337Z,27.04
2022-08-03T17:26:21.150Z,27.16
2022-08-03T17:28:57.723Z,27.32
2022-08-03T17:31:31.619Z,27.16
2022-08-03T17:34:01.118Z,27.13
2022-08-03T17:36:47.649Z,27.05
2022-08-03T17:39:16.822Z,26.87
2022-08-03T17:41:49.086Z,26.69
2022-08-03T17:44:33.192Z,26.72
2022-08-03T17:47:06.687Z,26.93
2022-08-03T17:49:39.856Z,26.64
2022-08-03T17:52:17.814Z,26.61
2022-08-03T17:55:57.653Z,26.51
2022-08-03T17:58:05.709Z,26.30
2022-08-03T18:00:33.664Z,26.15
2022-08-03T18:03:27.810Z,26.15
2022-08-03T18:06:10.987Z,26.00
2022-08-03T18:08:49.346Z,25.78
2022-08-03T18:11:19.871Z,25.72
2022-08-03T18:13:57.764Z,25.76
2022-08-03T18:16:31.436Z,25.63
2022-08-03T18:19:00.559Z,25.54
2022-08-03T18:22:03.250Z,25.40
2022-08-03T18:24:24.867Z,25.29
2022-08-03T18:26:52.114Z,25.17
2022-08-03T18:29:19.682Z,25.09
2022-08-03T18:32:02.573Z,24.95
2022-08-03T18:34:33.882Z,24.85
2022-08-03T18:37:07.458Z,24.80
2022-08-03T18:39:49.271Z,24.74
2022-08-03T18:42:19.455Z,24.58
2022-08-03T18:44:54.329Z,24.50
2022-08-03T18:47:22.406Z,24.35
2022-08-03T18:49:56.546Z,24.23
2022-08-03T18:52:46.045Z,24.15
2022-08-03T18:56:01.513Z,24.05
2022-08-03T18:58:55.726Z,23.99
2022-08-03T19:01:57.694Z,23.87
2022-08-03T19:04:47.993Z,23.75
2022-08-03T19:07:23.253Z,23.61
2022-08-03T19:09:54.198Z,23.48
2022-08-03T19:12:37.367Z,23.36
2022-08-03T19:15:10.534Z,23.29
2022-08-03T19:17:50.091Z,23.17
2022-08-03T19:20:21.794Z,23.03
2022-08-03T19:22:53.035Z,22.99
2022-08-03T19:25:19.502Z,22.87
2022-08-03T19:27:46.941Z,22.82
2022-08-03T19:30:26.002Z,22.73
2022-08-03T19:32:54.078Z,22.66
2022-08-03T19:35:46.488Z,22.59
2022-08-03T19:38:08.713Z,22.50
2022-08-03T19:40:44.530Z,22.45
2022-08-03T19:43:26.148Z,22.35
2022-08-03T19:46:06.154Z,22.25
2022-08-03T19:48:34.881Z,22.17
2022-08-03T19:51:03.675Z,22.10
2022-08-03T19:53:45.063Z,22.03
2022-08-03T19:56:15.854Z,22.55
2022-08-03T19:58:43.226Z,22.81
2022-08-03T20:01:21.143Z,23.07
2022-08-03T20:03:54.377Z,22.59
2022-08-03T20:06:23.596Z,22.30
2022-08-03T20:08:58.691Z,22.11
2022-08-03T20:11:28.593Z,21.93
2022-08-03T20:13:57.354Z,21.79
2022-08-03T20:16:25.301Z,21.69
2022-08-03T20:18:52.062Z,21.61
2022-08-03T20:21:21.614Z,21.48
2022-08-03T20:24:01.862Z,21.36
2022-08-03T20:26:45.317Z,21.24
2022-08-03T20:29:15.628Z,21.18
2022-08-03T20:31:49.157Z,21.12
2022-08-03T20:34:17.620Z,21.03
2022-08-03T20:36:44.461Z,21.01
2022-08-03T20:39:11.045Z,21.00
2022-08-03T20:41:38.110Z,20.99
2022-08-03T20:44:05.767Z,20.98
2022-08-03T20:46:44.099Z,20.97
2022-08-03T20:49:23.013Z,20.88
2022-08-03T20:51:53.310Z,20.81
2022-08-03T20:54:29.555Z,20.78
2022-08-03T20:57:03.567Z,20.72
2022-08-03T20:59:50.108Z,20.67
2022-08-03T21:02:30.864Z,20.63
2022-08-03T21:05:08.190Z,20.62
2022-08-03T21:08:26.155Z,20.62
2022-08-03T21:11:03.974Z,20.59
2022-08-03T21:13:44.302Z,20.51
2022-08-03T21:16:14.927Z,20.47
2022-08-03T21:18:51.153Z,20.47
2022-08-03T21:21:21.656Z,20.38
2022-08-03T21:23:53.760Z,20.38
2022-08-03T21:26:22.952Z,20.31
2022-08-03T21:28:51.785Z,20.30
2022-08-03T21:31:25.171Z,20.23
2022-08-03T21:33:54.672Z,20.21
2022-08-03T21:36:21.065Z,20.18
2022-08-03T21:38:56.177Z,20.14
2022-08-03T21:41:28.437Z,20.09
2022-08-03T21:43:55.407Z,20.03
2022-08-03T21:46:29.908Z,20.03
2022-08-03T21:50:05.660Z,20.03
2022-08-03T21:52:01.561Z,19.95
2022-08-03T21:54:41.857Z,19.92
2022-08-03T21:57:21.564Z,19.87
2022-08-03T21:59:53.716Z,19.83
2022-08-03T22:02:26.581Z,19.80
2022-08-03T22:04:55.467Z,19.79
2022-08-03T22:07:25.946Z,19.84
2022-08-03T22:09:52.584Z,19.79
2022-08-03T22:12:24.672Z,19.76
2022-08-03T22:15:00.383Z,19.70
2022-08-03T22:17:56.084Z,19.63
2022-08-03T22:20:14.294Z,19.61
2022-08-03T22:22:43.556Z,19.59
2022-08-03T22:25:26.070Z,19.57
2022-08-03T22:27:53.960Z,19.60
2022-08-03T22:30:20.666Z,19.57
2022-08-03T22:32:51.939Z,19.56
2022-08-03T22:35:21.142Z,19.55
2022-08-03T22:37:53.004Z,19.52
2022-08-03T22:40:19.470Z,19.48
2022-08-03T22:42:46.972Z,19.42
2022-08-03T22:46:07.945Z,19.40
2022-08-03T22:48:00.414Z,19.39
2022-08-03T22:50:32.003Z,19.36
2022-08-03T22:53:00.174Z,19.40
2022-08-03T22:55:27.308Z,19.34
2022-08-03T22:57:56.175Z,19.29
2022-08-03T23:00:24.123Z,19.27
2022-08-03T23:02:51.757Z,19.31
2022-08-03T23:06:00.239Z,19.35
2022-08-03T23:08:15.190Z,19.34
2022-08-03T23:10:47.199Z,19.30
2022-08-03T23:13:17.003Z,19.32
2022-08-03T23:15:54.946Z,19.27
2022-08-03T23:18:23.375Z,19.23
2022-08-03T23:20:54.153Z,19.25
2022-08-03T23:23:22.682Z,19.17
2022-08-03T23:25:51.520Z,19.17
2022-08-03T23:28:19.333Z,19.20
2022-08-03T23:30:47.496Z,19.17
2022-08-03T23:33:16.463Z,19.17
2022-08-03T23:36:28.659Z,19.24
2022-08-03T23:38:35.201Z,19.22
2022-08-03T23:41:03.818Z,19.15
2022-08-03T23:43:52.396Z,19.16
2022-08-03T23:46:20.763Z,19.15
2022-08-03T23:48:47.152Z,19.17
2022-08-03T23:51:23.445Z,19.18
2022-08-03T23:54:06.225Z,19.22
2022-08-03T23:56:54.805Z,19.19
2022-08-03T23:59:27.978Z,19.19
